Terminal Aerodrome Forecast
Issued by NWS

Home | Current Version | Previous Version | Text Only | Print | Product List | Glossary On
Versions: 1 2 3 4 5 6 7 8 9 10 11 12 13
000
FTUS45 KABQ 162300
TAFAEG
TAF
KAEG 162332Z 1700/1724 18010KT P6SM VCSH SCT025 BKN080 OVC150
     FM170200 16005KT P6SM SCT015 OVC040
     FM171200 03005KT P6SM OVC025
     FM171500 21005KT P6SM SCT025 OVC040
     FM172000 21010KT P6SM SCT060 BKN120=

USA.gov is the U.S. government's official web portal to all federal, state and local government web resources and services.